Airport Name : Al Maktoum Intl

Other Name : Dubai World

ICAO : OMDW

IATA : DWC

FAA :

Latitude : 24.91833

Longitude : 55.17556

Country : United Arab Emirates

Local Date and Time : 4/21/2018 1:46:00 PM

 

TAF (Terminal Aerodrome Forecast)

TAF OMDW 210500Z 2106/2212 24005KT CAVOK BECMG 2108/2110 34014KT PROB30 TEMPO 2109/2113 4000 BLDU BECMG 2116/2118 07005KT BECMG 2202/2204 15010KT BECMG 2209/2211 35015KT PROB30 TEMPO 2209/2212 35018G28KT 3000 BLDU

 

METAR (METeorological Aerodrome Report)

OMDW 210900Z 22003KT 150V280 CAVOK 35/04 Q1011 BECMG 34014KT

OMDW 210800Z VRB01KT CAVOK 34/05 Q1012 NOSIG

OMDW 210700Z 25003KT 180V330 CAVOK 32/09 Q1013 NOSIG

OMDW 210600Z VRB03KT CAVOK 30/12 Q1013 NOSIG